Time;durP1;ratioP1;P1;durP2;ratioP2;P2;SDS_P1;SDS_P2;PMS_P1;PMS_P2;Temp;Humidity;BMP_temperature;BMP_pressure;BME280_temperature;BME280_humidity;BME280_pressure;Samples;Min_cycle;Max_cycle;Signal;HPM_P1;HPM_P2
2021/06/21 00:00:50;;;;;;;1.35;1.17;;;23.20;70.00;;;;;;5133218;27;20054;-38
2021/06/21 00:03:15;;;;;;;1.25;1.15;;;23.30;70.00;;;;;;5133627;27;20502;-40
2021/06/21 00:05:41;;;;;;;3.10;1.10;;;23.20;70.00;;;;;;5133318;27;20035;-40
2021/06/21 00:08:07;;;;;;;1.35;1.05;;;23.20;70.00;;;;;;5133339;27;20147;-40
2021/06/21 00:10:33;;;;;;;1.27;0.93;;;23.20;70.00;;;;;;5133299;27;20492;-40
2021/06/21 00:12:58;;;;;;;1.52;1.15;;;23.20;70.00;;;;;;5113701;27;20046;-39
2021/06/21 00:15:26;;;;;;;1.17;1.08;;;23.20;70.00;;;;;;5132585;27;20067;-40
2021/06/21 00:17:52;;;;;;;1.25;1.15;;;23.20;70.00;;;;;;5130260;27;20046;-39
2021/06/21 00:20:19;;;;;;;1.17;1.05;;;23.20;70.00;;;;;;5133199;27;20047;-39
2021/06/21 00:22:46;;;;;;;1.13;1.00;;;23.20;70.00;;;;;;5132861;27;20039;-43
2021/06/21 00:25:14;;;;;;;1.52;0.93;;;23.20;70.00;;;;;;5130339;27;20047;-39
2021/06/21 00:27:40;;;;;;;1.88;1.27;;;23.20;70.00;;;;;;5132855;27;20116;-39
2021/06/21 00:30:10;;;;;;;1.00;1.00;;;23.20;70.00;;;;;;5132745;27;20057;-40
2021/06/21 00:32:37;;;;;;;1.17;1.00;;;23.20;70.00;;;;;;5132718;27;20043;-40
2021/06/21 00:35:04;;;;;;;1.20;1.10;;;23.10;70.00;;;;;;5133111;27;20043;-39
2021/06/21 00:37:30;;;;;;;1.70;1.13;;;23.20;70.00;;;;;;5132790;27;20126;-40
2021/06/21 00:39:56;;;;;;;1.63;1.30;;;23.10;70.00;;;;;;5132780;28;20474;-39
2021/06/21 00:42:21;;;;;;;1.08;0.93;;;23.10;70.00;;;;;;5132737;28;20035;-39
2021/06/21 00:44:47;;;;;;;1.13;1.02;;;23.10;70.00;;;;;;5131717;28;20062;-39
2021/06/21 00:47:13;;;;;;;0.98;0.95;;;23.20;70.10;;;;;;5129941;28;20085;-39
2021/06/21 00:49:40;;;;;;;1.13;1.02;;;23.10;70.00;;;;;;5132493;28;20039;-39
2021/06/21 00:52:11;;;;;;;1.33;0.98;;;23.10;70.00;;;;;;5132650;28;20055;-43
2021/06/21 00:54:38;;;;;;;1.05;0.93;;;23.10;70.10;;;;;;5132414;28;20051;-39
2021/06/21 00:57:05;;;;;;;1.25;1.13;;;23.10;70.00;;;;;;5132246;28;20046;-39
2021/06/21 00:59:31;;;;;;;1.23;1.00;;;23.10;70.00;;;;;;5131023;27;20066;-39
2021/06/21 01:01:56;;;;;;;1.00;0.90;;;23.10;70.00;;;;;;5136357;27;20040;-40
2021/06/21 01:04:22;;;;;;;2.35;0.93;;;23.10;70.00;;;;;;5136430;27;20047;-40
2021/06/21 01:06:48;;;;;;;1.17;1.00;;;23.10;70.00;;;;;;5136630;27;20100;-42
2021/06/21 01:09:14;;;;;;;1.35;1.05;;;23.10;70.00;;;;;;5136893;27;20435;-38
2021/06/21 01:12:01;;;;;;;1.92;1.23;;;23.10;70.00;;;;;;5136788;27;20051;-40
2021/06/21 01:14:29;;;;;;;1.00;0.90;;;23.10;70.00;;;;;;5135706;27;20047;-40
2021/06/21 01:17:08;;;;;;;1.20;1.08;;;23.10;70.10;;;;;;5136259;27;20058;-40
2021/06/21 01:20:07;;;;;;;1.08;0.98;;;23.10;70.00;;;;;;5134132;27;20063;-39
2021/06/21 01:23:00;;;;;;;2.38;1.00;;;23.10;69.90;;;;;;5133779;27;20114;-40
2021/06/21 01:25:34;;;;;;;0.88;0.77;;;23.10;70.60;;;;;;5116733;27;20507;-39
2021/06/21 01:28:15;;;;;;;0.95;0.88;;;23.10;70.00;;;;;;5136010;27;20062;-39
2021/06/21 01:31:04;;;;;;;0.93;0.80;;;23.10;70.00;;;;;;5134693;27;20039;-39
2021/06/21 01:33:32;;;;;;;1.20;0.90;;;23.10;70.00;;;;;;5135784;27;20043;-39
2021/06/21 01:36:01;;;;;;;1.25;0.95;;;23.10;70.00;;;;;;5117420;27;20057;-40
2021/06/21 01:38:32;;;;;;;1.90;1.17;;;23.10;70.10;;;;;;5135999;27;20047;-40
2021/06/21 01:41:03;;;;;;;0.82;0.73;;;23.10;70.10;;;;;;5135896;27;20555;-40
2021/06/21 01:43:39;;;;;;;0.98;0.90;;;23.10;70.10;;;;;;5135809;27;20086;-39
2021/06/21 01:46:08;;;;;;;3.50;0.90;;;23.10;70.00;;;;;;5135465;27;20100;-40
2021/06/21 01:48:38;;;;;;;1.23;1.00;;;23.10;70.10;;;;;;5133066;27;20042;-39
2021/06/21 01:51:04;;;;;;;1.33;1.10;;;23.00;70.00;;;;;;5135795;27;20039;-39
2021/06/21 01:53:33;;;;;;;1.35;1.20;;;23.00;70.00;;;;;;5135671;27;20043;-39
2021/06/21 01:56:13;;;;;;;0.95;0.95;;;23.00;70.00;;;;;;5135405;27;20039;-38
2021/06/21 01:58:40;;;;;;;0.80;0.80;;;23.00;70.00;;;;;;5133786;27;20075;-41
2021/06/21 02:01:15;;;;;;;1.35;0.90;;;23.10;70.10;;;;;;5135679;27;20043;-39
2021/06/21 02:03:45;;;;;;;0.93;0.80;;;23.00;70.00;;;;;;5135314;27;20467;-40
2021/06/21 02:06:11;;;;;;;1.25;1.13;;;23.00;70.00;;;;;;5132408;27;20047;-41
2021/06/21 02:08:38;;;;;;;0.98;0.93;;;23.00;70.00;;;;;;5135770;27;20086;-40
2021/06/21 02:11:05;;;;;;;1.10;1.00;;;23.00;70.00;;;;;;5135038;27;20454;-40
2021/06/21 02:13:35;;;;;;;1.50;0.90;;;23.00;70.10;;;;;;5135602;27;20043;-41
2021/06/21 02:16:02;;;;;;;1.30;1.20;;;23.00;70.10;;;;;;5135626;27;20043;-39
2021/06/21 02:18:28;;;;;;;1.08;1.00;;;23.00;70.10;;;;;;5135073;27;20046;-40
2021/06/21 02:20:54;;;;;;;1.08;0.98;;;23.00;70.10;;;;;;5116676;27;20039;-40
2021/06/21 02:23:24;;;;;;;1.50;1.10;;;23.00;70.10;;;;;;5135966;27;20073;-46
2021/06/21 02:25:52;;;;;;;1.13;1.00;;;23.00;70.10;;;;;;5135789;27;20039;-40
2021/06/21 02:28:20;;;;;;;1.20;1.02;;;23.00;70.10;;;;;;5135081;27;20047;-40
2021/06/21 02:30:47;;;;;;;1.85;1.13;;;23.00;70.10;;;;;;5135198;27;20175;-40
2021/06/21 02:33:15;;;;;;;1.00;0.90;;;23.00;70.10;;;;;;5132750;27;20428;-39
2021/06/21 02:35:42;;;;;;;0.80;0.80;;;23.00;70.10;;;;;;5134711;27;20394;-39
2021/06/21 02:38:09;;;;;;;1.20;1.00;;;23.00;70.10;;;;;;5134374;27;20066;-39
2021/06/21 02:40:35;;;;;;;1.55;1.13;;;23.00;70.10;;;;;;5135188;27;20040;-40
2021/06/21 02:43:01;;;;;;;1.15;1.10;;;22.90;70.00;;;;;;5135242;27;20039;-40
2021/06/21 02:45:29;;;;;;;1.20;1.00;;;23.00;70.10;;;;;;5134872;27;20619;-38
2021/06/21 02:47:55;;;;;;;0.82;0.75;;;23.00;70.10;;;;;;5132655;27;20051;-40
2021/06/21 02:50:21;;;;;;;1.20;1.10;;;22.90;70.00;;;;;;5134554;27;20046;-39
2021/06/21 02:53:02;;;;;;;1.63;0.98;;;22.90;70.00;;;;;;5134335;27;20043;-39
2021/06/21 02:55:36;;;;;;;1.02;0.90;;;22.90;70.00;;;;;;5134563;27;20509;-40
2021/06/21 02:58:11;;;;;;;2.10;0.95;;;23.00;70.10;;;;;;5134595;27;20047;-40
2021/06/21 03:00:40;;;;;;;1.00;0.90;;;23.00;70.10;;;;;;5132056;27;20120;-39
2021/06/21 03:03:08;;;;;;;0.80;0.80;;;23.00;70.10;;;;;;5133993;27;20652;-42
2021/06/21 03:05:35;;;;;;;1.08;0.88;;;22.90;70.10;;;;;;5132295;27;20043;-39
2021/06/21 03:08:02;;;;;;;1.65;0.80;;;23.00;70.10;;;;;;5134062;27;20043;-40
2021/06/21 03:10:29;;;;;;;1.30;1.00;;;22.90;70.00;;;;;;5133804;27;20483;-39
2021/06/21 03:12:56;;;;;;;1.13;1.02;;;22.90;70.00;;;;;;5134230;27;20031;-40
2021/06/21 03:15:26;;;;;;;1.35;1.10;;;22.90;70.00;;;;;;5134164;27;20034;-40
2021/06/21 03:17:54;;;;;;;1.60;1.20;;;22.90;70.00;;;;;;5131136;27;20046;-39
2021/06/21 03:20:21;;;;;;;1.02;0.98;;;22.90;70.00;;;;;;5133458;27;20376;-40
2021/06/21 03:22:48;;;;;;;1.30;1.20;;;22.90;70.00;;;;;;5131449;27;20452;-39
2021/06/21 03:25:15;;;;;;;1.33;0.93;;;22.90;70.00;;;;;;5133511;27;20148;-41
2021/06/21 03:27:41;;;;;;;1.40;0.93;;;22.90;70.00;;;;;;5132914;27;20055;-43
2021/06/21 03:30:11;;;;;;;1.67;1.10;;;22.90;70.00;;;;;;5133740;27;20142;-39
2021/06/21 03:32:41;;;;;;;1.23;1.00;;;22.90;70.00;;;;;;5133295;27;20042;-39
2021/06/21 03:35:09;;;;;;;1.00;0.90;;;22.90;70.00;;;;;;5133684;27;20051;-39
2021/06/21 03:37:35;;;;;;;1.52;1.10;;;22.90;70.00;;;;;;5133396;27;20542;-39
2021/06/21 03:40:04;;;;;;;1.25;1.15;;;22.90;70.00;;;;;;5133841;27;20043;-45
2021/06/21 03:42:30;;;;;;;1.42;1.33;;;22.90;70.00;;;;;;5133285;27;20044;-44
2021/06/21 03:44:56;;;;;;;1.50;1.23;;;22.90;70.00;;;;;;5133502;27;20080;-45
2021/06/21 03:47:22;;;;;;;3.30;1.00;;;22.90;70.00;;;;;;5133755;27;20044;-44
2021/06/21 03:49:48;;;;;;;1.38;1.27;;;22.90;70.00;;;;;;5133504;27;20549;-44
2021/06/21 03:52:15;;;;;;;1.10;1.00;;;22.90;70.00;;;;;;5133277;27;20327;-43
2021/06/21 03:54:41;;;;;;;1.27;1.00;;;23.00;70.10;;;;;;5133208;27;20146;-47
2021/06/21 03:57:08;;;;;;;0.90;0.85;;;22.80;70.00;;;;;;5133304;27;20463;-44
2021/06/21 03:59:34;;;;;;;1.27;1.08;;;22.90;70.00;;;;;;5133335;27;20039;-43
2021/06/21 04:02:00;;;;;;;1.05;1.00;;;22.80;70.00;;;;;;5132963;27;20046;-43
2021/06/21 04:04:26;;;;;;;1.05;0.80;;;22.80;70.00;;;;;;5133191;27;20039;-44
2021/06/21 04:06:52;;;;;;;1.00;0.90;;;22.90;70.00;;;;;;5133059;27;20043;-44
2021/06/21 04:09:19;;;;;;;1.45;1.00;;;22.80;70.00;;;;;;5132960;27;20061;-39
2021/06/21 04:11:45;;;;;;;0.98;0.98;;;22.80;70.00;;;;;;5130585;27;20061;-39
2021/06/21 04:14:13;;;;;;;0.80;0.80;;;22.80;70.00;;;;;;5132685;27;20054;-40
2021/06/21 04:16:40;;;;;;;0.80;0.80;;;22.80;70.00;;;;;;5133120;27;20059;-45
2021/06/21 04:19:06;;;;;;;1.27;1.05;;;22.80;70.00;;;;;;5132829;27;20054;-45
2021/06/21 04:21:32;;;;;;;0.82;0.82;;;22.80;70.00;;;;;;5133069;27;20394;-39
2021/06/21 04:23:58;;;;;;;1.55;0.90;;;22.90;70.00;;;;;;5133197;27;20043;-38
2021/06/21 04:26:24;;;;;;;1.50;1.20;;;22.80;70.00;;;;;;5132491;27;20402;-38
2021/06/21 04:28:50;;;;;;;2.22;1.42;;;22.80;70.00;;;;;;5132925;27;20042;-45
2021/06/21 04:31:18;;;;;;;1.20;0.90;;;22.80;70.00;;;;;;5114373;27;20483;-49
2021/06/21 04:33:44;;;;;;;1.48;1.00;;;22.80;70.00;;;;;;5132501;27;20043;-41
2021/06/21 04:36:11;;;;;;;1.30;1.20;;;22.80;70.00;;;;;;5132380;27;20047;-38
2021/06/21 04:38:37;;;;;;;2.35;1.13;;;22.80;70.70;;;;;;5133118;27;20391;-40
2021/06/21 04:41:04;;;;;;;0.80;0.80;;;22.80;70.00;;;;;;5132405;28;20548;-43
2021/06/21 04:43:35;;;;;;;1.00;0.90;;;22.80;70.00;;;;;;5132930;28;20063;-39
2021/06/21 04:46:06;;;;;;;1.23;1.13;;;22.80;70.00;;;;;;5129632;28;20063;-40
2021/06/21 04:48:38;;;;;;;1.30;1.00;;;22.80;70.00;;;;;;5132881;28;20130;-46
2021/06/21 04:51:04;;;;;;;1.00;0.80;;;22.80;70.10;;;;;;5130511;28;20509;-40
2021/06/21 04:53:30;;;;;;;1.13;1.02;;;22.80;70.00;;;;;;5133642;28;20043;-39
2021/06/21 04:55:59;;;;;;;1.08;0.93;;;22.80;70.00;;;;;;5132250;28;20608;-42
2021/06/21 04:58:26;;;;;;;1.65;0.98;;;22.80;70.00;;;;;;5131928;28;20479;-43
2021/06/21 05:00:52;;;;;;;1.90;1.10;;;22.80;70.30;;;;;;5132460;28;20040;-38
2021/06/21 05:03:17;;;;;;;1.33;1.23;;;22.80;70.60;;;;;;5132838;28;20078;-38
2021/06/21 05:05:43;;;;;;;1.05;1.00;;;22.80;71.20;;;;;;5132556;28;20064;-41
2021/06/21 05:08:09;;;;;;;2.05;1.23;;;22.80;71.50;;;;;;5132177;28;20043;-40
2021/06/21 05:10:34;;;;;;;1.15;0.90;;;22.80;71.60;;;;;;5132670;28;20473;-41
2021/06/21 05:13:00;;;;;;;1.73;1.30;;;22.80;71.60;;;;;;5132397;28;20495;-39
2021/06/21 05:15:28;;;;;;;1.45;1.20;;;22.80;71.50;;;;;;5132187;28;20529;-41
2021/06/21 05:17:55;;;;;;;1.23;1.13;;;22.80;71.40;;;;;;5132150;28;20039;-40
2021/06/21 05:20:22;;;;;;;1.30;1.10;;;22.80;71.30;;;;;;5132621;28;20039;-43
2021/06/21 05:22:49;;;;;;;1.15;0.95;;;22.70;71.10;;;;;;5132462;28;20451;-39
2021/06/21 05:25:14;;;;;;;1.73;1.10;;;22.70;71.00;;;;;;5132690;28;20134;-41
2021/06/21 05:27:40;;;;;;;1.05;0.93;;;22.70;70.90;;;;;;5131783;28;20031;-41
2021/06/21 05:30:07;;;;;;;2.25;1.50;;;22.70;70.80;;;;;;5132338;28;20055;-44
2021/06/21 05:32:32;;;;;;;1.48;1.02;;;22.70;70.70;;;;;;5132598;28;20124;-43
2021/06/21 05:34:58;;;;;;;1.40;1.08;;;22.70;70.70;;;;;;5132581;28;20044;-48
2021/06/21 05:37:24;;;;;;;1.20;1.10;;;22.70;70.70;;;;;;5132778;28;20127;-42
2021/06/21 05:39:49;;;;;;;1.27;1.13;;;22.70;70.70;;;;;;5132467;28;20059;-45
2021/06/21 05:42:17;;;;;;;1.83;1.15;;;22.70;70.70;;;;;;5132232;28;20043;-40
2021/06/21 05:44:43;;;;;;;1.50;1.00;;;22.70;70.70;;;;;;5131859;28;20074;-44
2021/06/21 05:47:09;;;;;;;1.45;1.13;;;22.70;70.70;;;;;;5134603;27;20060;-42
2021/06/21 05:49:35;;;;;;;1.88;1.10;;;22.70;70.60;;;;;;5136118;27;20116;-40
2021/06/21 05:52:01;;;;;;;1.13;1.02;;;22.70;70.70;;;;;;5136504;27;20054;-44
2021/06/21 05:54:26;;;;;;;1.17;1.00;;;22.60;70.70;;;;;;5136233;27;20455;-38
2021/06/21 05:56:52;;;;;;;1.20;1.10;;;22.70;70.80;;;;;;5136310;27;20126;-42
2021/06/21 05:59:18;;;;;;;1.98;1.30;;;22.70;70.80;;;;;;5135583;27;20535;-40
2021/06/21 06:01:44;;;;;;;1.25;1.10;;;22.60;70.80;;;;;;5136062;27;20050;-39
2021/06/21 06:04:10;;;;;;;1.17;1.08;;;22.70;70.80;;;;;;5136562;27;20143;-43
2021/06/21 06:06:35;;;;;;;1.08;0.98;;;22.60;70.80;;;;;;5136331;27;20078;-39
2021/06/21 06:09:01;;;;;;;1.17;1.00;;;22.60;70.70;;;;;;5135727;27;20065;-46
2021/06/21 06:11:27;;;;;;;1.27;0.98;;;22.60;70.70;;;;;;5135257;27;20159;-41
2021/06/21 06:13:53;;;;;;;1.52;1.20;;;22.60;70.70;;;;;;5135373;27;20056;-40
2021/06/21 06:16:18;;;;;;;2.25;1.25;;;22.60;70.70;;;;;;5135666;27;20039;-46
2021/06/21 06:18:44;;;;;;;1.95;0.98;;;22.60;70.70;;;;;;5135746;27;20129;-40
2021/06/21 06:21:17;;;;;;;1.95;1.10;;;22.60;70.70;;;;;;5135722;27;20497;-42
2021/06/21 06:23:43;;;;;;;1.30;1.20;;;22.60;70.80;;;;;;5134979;27;20528;-45
2021/06/21 06:26:09;;;;;;;1.50;1.25;;;22.60;70.80;;;;;;5135473;27;20043;-39
2021/06/21 06:28:38;;;;;;;1.45;1.10;;;22.60;70.90;;;;;;5135221;27;20592;-45
2021/06/21 06:31:04;;;;;;;2.20;1.45;;;22.60;71.00;;;;;;5135139;27;20039;-42
2021/06/21 06:33:30;;;;;;;1.27;0.95;;;22.50;71.00;;;;;;5135259;27;20113;-46
2021/06/21 06:35:56;;;;;;;2.13;1.08;;;22.60;71.00;;;;;;5135571;27;20073;-44
2021/06/21 06:38:22;;;;;;;1.35;1.25;;;22.60;71.10;;;;;;5135268;27;20039;-41
2021/06/21 06:40:47;;;;;;;1.65;1.23;;;22.50;71.00;;;;;;5135445;27;20120;-42
2021/06/21 06:43:14;;;;;;;0.85;0.82;;;22.50;71.00;;;;;;5135261;27;20411;-46
2021/06/21 06:45:40;;;;;;;1.42;1.33;;;22.60;71.10;;;;;;5135090;27;20051;-41
2021/06/21 06:48:06;;;;;;;1.63;1.10;;;22.60;71.20;;;;;;5135427;27;20047;-42
2021/06/21 06:50:32;;;;;;;1.40;1.08;;;22.50;71.10;;;;;;5135711;27;20123;-43
2021/06/21 06:52:59;;;;;;;1.40;1.27;;;22.50;71.10;;;;;;5135179;27;20066;-45
2021/06/21 06:58:09;;;;;;;1.15;1.00;;;22.50;71.00;;;;;;5135224;27;20100;-43
2021/06/21 07:00:35;;;;;;;1.23;1.10;;;22.50;71.00;;;;;;5135318;27;20043;-42
2021/06/21 07:03:02;;;;;;;1.60;1.13;;;22.50;71.00;;;;;;5135167;27;20046;-46
2021/06/21 07:05:28;;;;;;;1.55;1.27;;;22.50;71.00;;;;;;5134625;27;20054;-41
2021/06/21 07:07:58;;;;;;;0.93;0.88;;;22.50;71.00;;;;;;5134962;27;20047;-40
2021/06/21 07:10:24;;;;;;;1.55;1.10;;;22.50;70.90;;;;;;5135277;27;20071;-46
2021/06/21 07:12:50;;;;;;;1.45;1.05;;;22.50;70.90;;;;;;5135050;27;20506;-41
2021/06/21 07:15:16;;;;;;;1.38;0.98;;;22.50;71.50;;;;;;5135181;27;20047;-46
2021/06/21 07:17:42;;;;;;;1.80;1.30;;;22.50;70.80;;;;;;5134198;27;20043;-45
2021/06/21 07:20:09;;;;;;;1.40;1.20;;;22.50;70.80;;;;;;5134296;27;20058;-43
2021/06/21 07:22:34;;;;;;;2.05;1.30;;;22.50;70.70;;;;;;5134677;27;20050;-46
2021/06/21 07:25:00;;;;;;;1.60;1.17;;;22.50;70.70;;;;;;5134630;27;20043;-47
2021/06/21 07:27:26;;;;;;;1.35;0.90;;;22.50;70.70;;;;;;5134022;27;20035;-47
2021/06/21 07:29:53;;;;;;;1.08;0.95;;;22.50;70.70;;;;;;5134292;27;20044;-43
2021/06/21 07:32:19;;;;;;;1.50;1.13;;;22.50;70.70;;;;;;5134031;27;20051;-47
2021/06/21 07:34:45;;;;;;;1.10;1.00;;;22.50;70.70;;;;;;5133927;27;20150;-39
2021/06/21 07:37:11;;;;;;;1.00;0.90;;;22.50;70.70;;;;;;5134438;27;20062;-38
2021/06/21 07:39:37;;;;;;;1.00;0.90;;;22.50;70.70;;;;;;5133839;27;20399;-38
2021/06/21 07:42:04;;;;;;;2.38;1.42;;;22.50;70.60;;;;;;5134265;27;20045;-39
2021/06/21 07:44:30;;;;;;;1.38;1.20;;;22.50;70.60;;;;;;5134164;27;20043;-38
2021/06/21 07:46:56;;;;;;;1.25;0.98;;;22.50;70.60;;;;;;5133888;27;20422;-39
2021/06/21 07:49:22;;;;;;;1.38;1.27;;;22.50;70.60;;;;;;5132812;27;20493;-40
2021/06/21 07:51:48;;;;;;;1.35;1.10;;;22.50;70.60;;;;;;5133790;27;20138;-40
2021/06/21 07:54:14;;;;;;;1.55;1.23;;;22.50;70.60;;;;;;5134002;27;20053;-39
2021/06/21 07:56:40;;;;;;;2.33;1.02;;;22.50;70.60;;;;;;5133870;27;20043;-39
2021/06/21 07:59:06;;;;;;;1.48;1.02;;;22.50;70.60;;;;;;5134025;27;20078;-41
2021/06/21 08:01:32;;;;;;;1.40;1.30;;;22.50;70.60;;;;;;5132932;27;20491;-38
2021/06/21 08:03:58;;;;;;;1.50;1.13;;;22.50;70.60;;;;;;5133069;27;20039;-39
2021/06/21 08:06:24;;;;;;;1.38;1.10;;;22.50;70.60;;;;;;5133537;27;20047;-39
2021/06/21 08:08:50;;;;;;;2.63;1.17;;;22.50;70.60;;;;;;5133336;27;20043;-37
2021/06/21 08:11:15;;;;;;;1.23;1.13;;;22.50;70.60;;;;;;5133601;27;20497;-37
2021/06/21 08:13:41;;;;;;;1.27;1.10;;;22.50;70.60;;;;;;5133766;27;20040;-38
2021/06/21 08:16:07;;;;;;;1.40;1.08;;;22.50;70.60;;;;;;5133273;27;20143;-38
2021/06/21 08:18:33;;;;;;;1.10;1.00;;;22.50;70.60;;;;;;5133615;27;20061;-38
2021/06/21 08:21:00;;;;;;;1.85;1.30;;;22.50;70.70;;;;;;5132921;27;20505;-36
2021/06/21 08:23:26;;;;;;;1.20;0.90;;;22.50;70.70;;;;;;5121620;27;20104;-37
2021/06/21 08:25:52;;;;;;;1.92;1.30;;;22.50;70.70;;;;;;5133316;27;20043;-38
2021/06/21 08:28:18;;;;;;;1.38;1.05;;;22.50;70.70;;;;;;5133391;27;20495;-38
2021/06/21 08:30:47;;;;;;;1.38;1.23;;;22.50;70.60;;;;;;5132960;27;20482;-37
2021/06/21 08:33:13;;;;;;;1.65;1.20;;;22.50;70.60;;;;;;5132995;27;20046;-38
2021/06/21 08:35:38;;;;;;;2.00;1.30;;;22.50;70.70;;;;;;5132931;27;20471;-37
2021/06/21 08:38:05;;;;;;;1.35;1.02;;;22.50;70.80;;;;;;5133147;27;20047;-38
2021/06/21 08:40:33;;;;;;;1.98;1.05;;;22.40;71.00;;;;;;5133178;27;20043;-38
2021/06/21 08:43:03;;;;;;;1.00;0.88;;;22.50;71.20;;;;;;5132281;28;20039;-37
2021/06/21 08:45:31;;;;;;;1.48;1.00;;;22.50;71.20;;;;;;5132275;28;20078;-37
2021/06/21 08:47:57;;;;;;;1.40;1.10;;;22.50;71.40;;;;;;5132647;28;20574;-38
2021/06/21 08:50:24;;;;;;;1.70;1.15;;;22.50;71.40;;;;;;5132380;28;20039;-37
2021/06/21 08:52:50;;;;;;;1.58;1.23;;;22.40;71.40;;;;;;5132740;28;20096;-35
2021/06/21 08:55:16;;;;;;;1.67;1.25;;;22.50;71.50;;;;;;5133018;28;20046;-37
2021/06/21 08:57:47;;;;;;;1.20;1.05;;;22.50;71.50;;;;;;5132836;28;20043;-37
2021/06/21 09:00:15;;;;;;;1.70;1.05;;;22.50;71.50;;;;;;5132645;28;20043;-38
2021/06/21 09:02:41;;;;;;;1.75;1.38;;;22.40;71.40;;;;;;5132559;28;20039;-37
2021/06/21 09:05:11;;;;;;;1.95;1.50;;;22.50;71.40;;;;;;5131212;28;20104;-35
2021/06/21 09:07:37;;;;;;;2.13;1.25;;;22.50;71.40;;;;;;5120513;28;20071;-36
2021/06/21 09:10:09;;;;;;;2.35;1.08;;;22.40;71.30;;;;;;5132635;28;20053;-35
2021/06/21 09:12:35;;;;;;;1.42;1.00;;;22.40;71.20;;;;;;5132512;28;20070;-37
2021/06/21 09:15:08;;;;;;;1.70;1.30;;;22.40;71.20;;;;;;5131770;28;20062;-36
2021/06/21 09:17:38;;;;;;;1.15;1.02;;;22.40;71.20;;;;;;5132405;28;20054;-36
2021/06/21 09:20:15;;;;;;;0.95;0.93;;;22.40;71.20;;;;;;5132357;27;20055;-37
2021/06/21 09:22:50;;;;;;;1.98;1.10;;;22.40;71.30;;;;;;5134314;27;20046;-35
2021/06/21 09:25:16;;;;;;;2.17;1.20;;;22.40;71.30;;;;;;5135974;27;20053;-37
2021/06/21 09:27:52;;;;;;;1.52;1.20;;;22.40;71.20;;;;;;5135858;27;20133;-36
2021/06/21 09:30:18;;;;;;;1.52;1.13;;;22.40;71.30;;;;;;5136106;27;20070;-37
2021/06/21 09:32:47;;;;;;;1.20;1.10;;;22.40;71.40;;;;;;5136386;27;20043;-36
2021/06/21 09:35:37;;;;;;;1.10;0.90;;;22.40;71.40;;;;;;5135887;27;20047;-37
2021/06/21 09:38:10;;;;;;;1.35;0.70;;;22.40;71.30;;;;;;5119823;27;20086;-36
2021/06/21 09:40:57;;;;;;;1.60;0.73;;;22.40;71.40;;;;;;5135191;27;20119;-35
2021/06/21 09:43:32;;;;;;;1.17;0.90;;;22.40;71.30;;;;;;5131339;27;20043;-35
2021/06/21 09:46:04;;;;;;;1.35;0.80;;;22.40;71.40;;;;;;5135017;27;20055;-36
2021/06/21 09:48:31;;;;;;;1.73;1.05;;;22.40;71.30;;;;;;5134227;27;20054;-35
2021/06/21 09:50:57;;;;;;;1.20;1.05;;;22.40;71.30;;;;;;5132714;27;20036;-36
2021/06/21 09:53:23;;;;;;;1.73;1.02;;;22.40;71.30;;;;;;5135844;27;20050;-37
2021/06/21 09:55:49;;;;;;;2.05;1.20;;;22.40;71.50;;;;;;5135834;27;20061;-36
2021/06/21 09:58:21;;;;;;;2.55;1.20;;;22.40;72.40;;;;;;5135352;27;20486;-35
2021/06/21 10:01:09;;;;;;;2.92;1.00;;;22.40;71.90;;;;;;5130555;27;20039;-36
2021/06/21 10:03:44;;;;;;;1.75;1.20;;;22.40;72.00;;;;;;5135605;27;20398;-36
2021/06/21 10:06:11;;;;;;;1.35;1.02;;;22.40;72.50;;;;;;5127634;27;20094;-37
2021/06/21 10:08:49;;;;;;;1.00;0.90;;;22.40;72.60;;;;;;5134636;27;20486;-37
2021/06/21 10:11:34;;;;;;;1.70;1.10;;;22.40;72.50;;;;;;5132664;27;20082;-37
2021/06/21 10:14:08;;;;;;;2.05;1.30;;;22.40;72.30;;;;;;5131495;27;20050;-37
2021/06/21 10:16:34;;;;;;;2.13;1.23;;;22.40;72.30;;;;;;5133242;27;20043;-37
2021/06/21 10:19:01;;;;;;;2.97;1.30;;;22.40;72.20;;;;;;5135362;27;20114;-37
2021/06/21 10:21:28;;;;;;;1.65;0.85;;;22.30;72.00;;;;;;5135094;27;20047;-38
2021/06/21 10:23:55;;;;;;;1.20;0.90;;;22.40;71.90;;;;;;5127770;27;20067;-37
2021/06/21 10:26:21;;;;;;;1.20;0.98;;;22.40;71.80;;;;;;5114957;28;20040;-39
2021/06/21 10:28:49;;;;;;;1.10;0.85;;;22.40;71.80;;;;;;5122257;27;20518;-37
2021/06/21 10:31:15;;;;;;;1.48;0.95;;;22.40;71.70;;;;;;5135787;27;20051;-36
2021/06/21 10:33:41;;;;;;;1.55;1.02;;;22.40;71.60;;;;;;5133993;27;20050;-37
2021/06/21 10:36:08;;;;;;;1.42;1.10;;;22.40;71.50;;;;;;5115376;28;20043;-38
2021/06/21 10:38:34;;;;;;;1.27;0.98;;;22.40;72.20;;;;;;5114990;28;20102;-37
2021/06/21 10:41:06;;;;;;;1.58;1.20;;;22.40;71.50;;;;;;5114492;28;20100;-38
2021/06/21 10:43:44;;;;;;;2.47;1.33;;;22.40;71.50;;;;;;5114881;28;20044;-36
2021/06/21 10:46:19;;;;;;;2.20;1.30;;;22.40;71.40;;;;;;5115623;27;20061;-37
2021/06/21 10:48:57;;;;;;;2.15;1.08;;;22.40;71.40;;;;;;5114751;28;20046;-38
2021/06/21 10:51:36;;;;;;;0.77;0.77;;;22.40;71.40;;;;;;5114675;28;20508;-38
2021/06/21 10:54:03;;;;;;;1.10;1.00;;;22.40;71.40;;;;;;5114726;28;20519;-38
2021/06/21 10:56:51;;;;;;;1.85;1.20;;;22.30;71.30;;;;;;5115445;27;20050;-38
2021/06/21 10:59:19;;;;;;;1.15;1.00;;;22.40;71.20;;;;;;5114511;28;20475;-37
2021/06/21 11:01:55;;;;;;;2.13;1.00;;;22.30;71.30;;;;;;5114558;28;20126;-37
2021/06/21 11:04:34;;;;;;;1.42;1.00;;;22.30;71.20;;;;;;5114087;28;20450;-38
2021/06/21 11:07:11;;;;;;;1.40;1.10;;;22.40;71.30;;;;;;5115673;27;20044;-36
2021/06/21 11:09:47;;;;;;;0.95;0.80;;;22.30;71.90;;;;;;5114493;28;20047;-38
2021/06/21 11:12:22;;;;;;;1.95;1.15;;;22.40;71.30;;;;;;5113962;28;20067;-38
2021/06/21 11:15:03;;;;;;;1.20;1.05;;;22.40;71.30;;;;;;5114117;28;20052;-36
2021/06/21 11:17:32;;;;;;;2.17;1.08;;;22.40;71.30;;;;;;5115208;27;20047;-36
2021/06/21 11:20:17;;;;;;;1.17;0.95;;;22.30;71.30;;;;;;5113945;28;20127;-38
2021/06/21 11:22:46;;;;;;;2.72;1.20;;;22.40;71.40;;;;;;5113770;28;20040;-37
2021/06/21 11:25:23;;;;;;;1.48;1.00;;;22.30;71.40;;;;;;5113910;28;20096;-37
2021/06/21 11:27:51;;;;;;;1.30;1.10;;;22.40;71.40;;;;;;5114698;27;20113;-37
2021/06/21 11:30:29;;;;;;;1.33;1.23;;;22.40;71.40;;;;;;5113867;28;20051;-37
2021/06/21 11:32:59;;;;;;;2.35;1.20;;;22.30;71.30;;;;;;5113677;28;20043;-37
2021/06/21 11:35:47;;;;;;;1.23;1.13;;;22.30;71.30;;;;;;5113941;28;20119;-38
2021/06/21 11:38:27;;;;;;;2.00;1.02;;;22.30;71.20;;;;;;5114695;27;20083;-36
2021/06/21 11:41:15;;;;;;;1.65;1.05;;;22.30;71.30;;;;;;5121145;27;20122;-37
2021/06/21 11:43:53;;;;;;;1.58;0.88;;;22.30;71.40;;;;;;5132491;27;20035;-37
2021/06/21 11:46:39;;;;;;;1.67;1.08;;;22.40;71.60;;;;;;5130484;27;20055;-38
2021/06/21 11:49:09;;;;;;;1.90;1.00;;;22.30;72.10;;;;;;5130588;27;20066;-37
2021/06/21 11:51:35;;;;;;;1.40;1.00;;;22.30;71.50;;;;;;5130946;27;20543;-37
2021/06/21 11:54:01;;;;;;;2.42;1.13;;;22.30;71.50;;;;;;5133522;27;20047;-37
2021/06/21 11:56:28;;;;;;;2.72;1.08;;;22.30;71.50;;;;;;5131309;27;20116;-37
2021/06/21 11:58:55;;;;;;;1.60;0.95;;;22.30;71.40;;;;;;5131901;27;20035;-36
2021/06/21 12:01:23;;;;;;;2.10;1.02;;;22.30;71.40;;;;;;5132819;27;20462;-36
2021/06/21 12:03:57;;;;;;;3.00;1.10;;;22.30;71.30;;;;;;5130784;27;20042;-37
2021/06/21 12:06:24;;;;;;;2.33;1.20;;;22.30;71.20;;;;;;5133247;27;20043;-37
2021/06/21 12:08:49;;;;;;;1.73;1.05;;;22.30;71.20;;;;;;5132515;27;20043;-37
2021/06/21 12:11:22;;;;;;;1.75;1.02;;;22.30;71.10;;;;;;5130525;27;20046;-38
2021/06/21 12:14:00;;;;;;;1.13;0.90;;;22.30;71.10;;;;;;5131809;27;20035;-37
2021/06/21 12:16:28;;;;;;;1.15;1.00;;;22.30;71.10;;;;;;5129382;27;20143;-38
2021/06/21 12:18:56;;;;;;;1.30;1.02;;;22.30;71.10;;;;;;5128822;27;20383;-38
2021/06/21 12:21:37;;;;;;;0.98;0.88;;;22.30;71.10;;;;;;5132741;27;20035;-37
2021/06/21 12:24:26;;;;;;;1.40;0.90;;;22.30;71.10;;;;;;5130393;27;20042;-38
2021/06/21 12:27:10;;;;;;;1.98;1.10;;;22.30;71.10;;;;;;5131870;27;20073;-37
2021/06/21 12:29:39;;;;;;;1.40;0.90;;;22.30;71.10;;;;;;5128816;27;20043;-38
2021/06/21 12:32:10;;;;;;;1.40;1.00;;;22.30;71.10;;;;;;5132548;27;20548;-37
2021/06/21 12:34:53;;;;;;;1.30;0.90;;;22.30;71.10;;;;;;5128995;27;20074;-38
2021/06/21 12:37:22;;;;;;;1.90;1.00;;;22.30;71.70;;;;;;5132670;27;20126;-38
2021/06/21 12:39:51;;;;;;;1.50;0.95;;;22.30;71.10;;;;;;5129784;27;20099;-38
2021/06/21 12:42:18;;;;;;;1.63;0.90;;;22.30;71.10;;;;;;5132786;27;20078;-38
2021/06/21 12:44:46;;;;;;;1.60;1.10;;;22.30;71.00;;;;;;5130918;28;20031;-36
2021/06/21 12:47:24;;;;;;;1.25;0.82;;;22.30;71.00;;;;;;5126076;28;20788;-37
2021/06/21 12:49:53;;;;;;;1.20;1.00;;;22.30;71.00;;;;;;5130432;28;20040;-37
2021/06/21 12:52:23;;;;;;;1.10;0.82;;;22.30;71.00;;;;;;5133244;28;20054;-38
2021/06/21 12:54:56;;;;;;;1.02;0.93;;;22.30;71.00;;;;;;5133097;27;20507;-37
2021/06/21 12:57:53;;;;;;;1.08;0.98;;;22.30;70.90;;;;;;5133700;27;20063;-37
2021/06/21 13:00:36;;;;;;;2.67;1.00;;;22.30;70.90;;;;;;5135911;27;20043;-37